Time;durP1;ratioP1;P1;durP2;ratioP2;P2;SDS_P1;SDS_P2;PMS_P1;PMS_P2;Temp;Humidity;BMP_temperature;BMP_pressure;BME280_temperature;BME280_humidity;BME280_pressure;Samples;Min_cycle;Max_cycle;Signal;HPM_P1;HPM_P2
2022/03/03 00:01:18;;;;;;;;;78.67;62.00;;;;;;;;5066268;28;45450;-79
2022/03/03 00:03:43;;;;;;;;;84.00;62.67;;;;;;;;5068193;28;46812;-79
2022/03/03 00:06:08;;;;;;;;;86.00;64.67;;;;;;;;5060700;28;45540;-79
2022/03/03 00:08:34;;;;;;;;;83.33;63.33;;;;;;;;5070413;28;45474;-79
2022/03/03 00:10:59;;;;;;;;;81.33;63.67;;;;;;;;5061180;27;45600;-78
2022/03/03 00:13:24;;;;;;;;;81.33;62.00;;;;;;;;5073614;28;46928;-79
2022/03/03 00:15:49;;;;;;;;;80.00;61.67;;;;;;;;5079313;28;45275;-79
2022/03/03 00:18:15;;;;;;;;;75.33;59.00;;;;;;;;5066509;28;45272;-79
2022/03/03 00:20:40;;;;;;;;;82.00;62.67;;;;;;;;5060251;28;45173;-79
2022/03/03 00:23:05;;;;;;;;;81.33;61.67;;;;;;;;5070963;28;47233;-79
2022/03/03 00:25:31;;;;;;;;;81.00;60.33;;;;;;;;5059149;28;45210;-79
2022/03/03 00:27:56;;;;;;;;;79.33;61.67;;;;;;;;5066441;28;45363;-79
2022/03/03 00:30:21;;;;;;;;;75.67;59.00;;;;;;;;5080402;28;45377;-78
2022/03/03 00:32:46;;;;;;;;;81.67;63.33;;;;;;;;5074102;28;45501;-78
2022/03/03 00:35:12;;;;;;;;;83.67;62.00;;;;;;;;5059378;28;45332;-78
2022/03/03 00:37:38;;;;;;;;;85.33;62.67;;;;;;;;5074156;28;45371;-78
2022/03/03 00:40:04;;;;;;;;;80.33;61.00;;;;;;;;5060353;28;46393;-78
2022/03/03 00:42:30;;;;;;;;;79.00;61.00;;;;;;;;5062347;28;46039;-78
2022/03/03 00:44:55;;;;;;;;;83.67;62.00;;;;;;;;5060915;28;45295;-79
2022/03/03 00:47:20;;;;;;;;;78.00;59.67;;;;;;;;5062150;28;45426;-78
2022/03/03 00:49:45;;;;;;;;;80.33;62.67;;;;;;;;5061453;28;47373;-79
2022/03/03 00:52:12;;;;;;;;;79.25;59.75;;;;;;;;5063836;28;46530;-78
2022/03/03 00:54:37;;;;;;;;;84.00;62.00;;;;;;;;5073351;28;45435;-78
2022/03/03 00:57:02;;;;;;;;;79.00;62.00;;;;;;;;5073528;28;45185;-78
2022/03/03 00:59:27;;;;;;;;;78.33;61.67;;;;;;;;5062408;28;46503;-78
2022/03/03 01:01:53;;;;;;;;;81.33;61.67;;;;;;;;5062863;28;45434;-78
2022/03/03 01:04:19;;;;;;;;;80.00;61.00;;;;;;;;5066435;28;45236;-78
2022/03/03 01:06:44;;;;;;;;;75.25;59.75;;;;;;;;5061702;28;44772;-78
2022/03/03 01:09:10;;;;;;;;;87.00;62.00;;;;;;;;5057998;28;47147;-78
2022/03/03 01:11:35;;;;;;;;;85.00;63.00;;;;;;;;5059237;27;48264;-78
2022/03/03 01:14:00;;;;;;;;;82.00;63.00;;;;;;;;5068371;28;45244;-78
2022/03/03 01:16:25;;;;;;;;;81.67;60.00;;;;;;;;5061202;28;45400;-78
2022/03/03 01:18:51;;;;;;;;;82.33;63.00;;;;;;;;5062249;28;45604;-79
2022/03/03 01:21:16;;;;;;;;;81.67;61.33;;;;;;;;5061685;28;46461;-78
2022/03/03 01:23:41;;;;;;;;;84.00;67.00;;;;;;;;5067256;28;45457;-78
2022/03/03 01:26:07;;;;;;;;;78.33;60.00;;;;;;;;5060471;28;45542;-78
2022/03/03 01:28:32;;;;;;;;;86.67;68.33;;;;;;;;5067061;28;46095;-78
2022/03/03 01:30:57;;;;;;;;;84.33;62.00;;;;;;;;5059477;28;46008;-77
2022/03/03 01:33:23;;;;;;;;;76.67;60.33;;;;;;;;5066121;28;45291;-78
2022/03/03 01:35:48;;;;;;;;;84.67;61.00;;;;;;;;5059574;28;45324;-78
2022/03/03 01:38:13;;;;;;;;;78.67;61.67;;;;;;;;5064831;28;45556;-78
2022/03/03 01:40:38;;;;;;;;;83.33;61.33;;;;;;;;5058922;28;48408;-78
2022/03/03 01:43:04;;;;;;;;;81.00;62.33;;;;;;;;5064041;28;45444;-79
2022/03/03 01:45:29;;;;;;;;;78.33;58.33;;;;;;;;5060364;28;45424;-78
2022/03/03 01:47:55;;;;;;;;;80.67;61.00;;;;;;;;5065872;28;46892;-78
2022/03/03 01:50:20;;;;;;;;;82.00;61.33;;;;;;;;5059119;28;45372;-78
2022/03/03 01:52:45;;;;;;;;;84.67;64.33;;;;;;;;5063891;28;45402;-78
2022/03/03 01:55:11;;;;;;;;;83.00;62.67;;;;;;;;5071890;28;45492;-78
2022/03/03 01:57:36;;;;;;;;;78.33;61.00;;;;;;;;5074203;28;46031;-78
2022/03/03 02:00:03;;;;;;;;;81.33;62.33;;;;;;;;5073041;28;45815;-78
2022/03/03 02:02:28;;;;;;;;;81.00;62.33;;;;;;;;5061436;28;45276;-78
2022/03/03 02:04:54;;;;;;;;;83.33;63.00;;;;;;;;5057786;28;45155;-78
2022/03/03 02:07:20;;;;;;;;;87.33;67.33;;;;;;;;5060944;28;45382;-78
2022/03/03 02:09:45;;;;;;;;;87.33;65.33;;;;;;;;5058979;28;45606;-78
2022/03/03 02:12:10;;;;;;;;;78.67;62.33;;;;;;;;5060106;28;45148;-79
2022/03/03 02:14:43;;;;;;;;;83.33;65.00;;;;;;;;5058966;28;45261;-79
2022/03/03 02:17:09;;;;;;;;;87.00;68.00;;;;;;;;5064025;28;45201;-78
2022/03/03 02:19:35;;;;;;;;;79.00;61.00;;;;;;;;5058941;28;47274;-78
2022/03/03 02:22:00;;;;;;;;;76.67;59.00;;;;;;;;5074282;28;45703;-79
2022/03/03 02:24:25;;;;;;;;;85.33;63.33;;;;;;;;5066183;28;45308;-78
2022/03/03 02:26:51;;;;;;;;;81.33;65.00;;;;;;;;5061261;28;45573;-78
2022/03/03 02:29:16;;;;;;;;;82.67;63.67;;;;;;;;5066140;28;47450;-78
2022/03/03 02:31:44;;;;;;;;;84.00;61.33;;;;;;;;5060914;28;45405;-77
2022/03/03 02:34:10;;;;;;;;;74.67;59.67;;;;;;;;5067624;28;45350;-77
2022/03/03 02:36:35;;;;;;;;;74.75;59.50;;;;;;;;5065519;28;46485;-78
2022/03/03 02:39:02;;;;;;;;;79.00;61.67;;;;;;;;5063438;27;46083;-77
2022/03/03 02:41:28;;;;;;;;;82.33;62.33;;;;;;;;5064220;28;45398;-77
2022/03/03 02:43:54;;;;;;;;;80.00;60.75;;;;;;;;5071090;28;45459;-77
2022/03/03 02:46:19;;;;;;;;;81.00;61.50;;;;;;;;5062181;28;45484;-78
2022/03/03 02:48:44;;;;;;;;;81.33;62.00;;;;;;;;5065601;28;45453;-77
2022/03/03 02:51:09;;;;;;;;;81.25;61.50;;;;;;;;5063267;28;45253;-78
2022/03/03 02:53:35;;;;;;;;;81.75;59.50;;;;;;;;5062968;28;45312;-78
2022/03/03 02:56:01;;;;;;;;;80.25;60.75;;;;;;;;5062638;28;45152;-78
2022/03/03 02:58:26;;;;;;;;;77.50;60.25;;;;;;;;5061344;28;45207;-78
2022/03/03 03:00:52;;;;;;;;;76.25;59.25;;;;;;;;5063539;28;45413;-78
2022/03/03 03:03:18;;;;;;;;;75.75;59.75;;;;;;;;5068388;28;45324;-79
2022/03/03 03:05:44;;;;;;;;;75.00;60.00;;;;;;;;5061682;28;45283;-79
2022/03/03 03:08:09;;;;;;;;;80.50;59.00;;;;;;;;5061782;28;45349;-78
2022/03/03 03:10:34;;;;;;;;;73.25;58.25;;;;;;;;5060170;28;45797;-79
2022/03/03 03:13:00;;;;;;;;;77.25;60.25;;;;;;;;5073823;27;45312;-79
2022/03/03 03:15:25;;;;;;;;;75.25;58.50;;;;;;;;5060013;28;45904;-79
2022/03/03 03:17:51;;;;;;;;;76.25;60.00;;;;;;;;5073097;28;47301;-79
2022/03/03 03:20:16;;;;;;;;;69.00;55.25;;;;;;;;5061396;28;45284;-78
2022/03/03 03:22:42;;;;;;;;;75.50;59.50;;;;;;;;5072081;28;45240;-78
2022/03/03 03:25:08;;;;;;;;;77.75;60.00;;;;;;;;5068619;28;45795;-78
2022/03/03 03:27:34;;;;;;;;;72.75;57.75;;;;;;;;5069681;28;46575;-79
2022/03/03 03:29:59;;;;;;;;;69.50;55.75;;;;;;;;5063858;28;45228;-78
2022/03/03 03:32:25;;;;;;;;;80.25;60.00;;;;;;;;5069223;28;45598;-78
2022/03/03 03:34:50;;;;;;;;;75.50;59.00;;;;;;;;5071933;28;46976;-78
2022/03/03 03:37:16;;;;;;;;;81.00;60.75;;;;;;;;5075631;28;48552;-78
2022/03/03 03:39:41;;;;;;;;;73.50;55.50;;;;;;;;5064873;28;45323;-77
2022/03/03 03:42:06;;;;;;;;;81.75;60.50;;;;;;;;5063296;28;45490;-78
2022/03/03 03:44:31;;;;;;;;;79.50;58.75;;;;;;;;5063715;28;47030;-78
2022/03/03 03:46:57;;;;;;;;;73.00;55.50;;;;;;;;5062135;28;46485;-78
2022/03/03 03:49:23;;;;;;;;;76.75;59.25;;;;;;;;5062075;28;45280;-78
2022/03/03 03:51:49;;;;;;;;;72.75;56.50;;;;;;;;5062952;28;45466;-78
2022/03/03 03:54:14;;;;;;;;;76.25;59.00;;;;;;;;5079570;28;45435;-78
2022/03/03 03:56:39;;;;;;;;;75.00;57.00;;;;;;;;5075584;28;47008;-78
2022/03/03 03:59:04;;;;;;;;;76.25;59.00;;;;;;;;5068421;28;45323;-78
2022/03/03 04:01:31;;;;;;;;;74.00;57.00;;;;;;;;5066582;28;45340;-78
2022/03/03 04:03:56;;;;;;;;;73.00;59.00;;;;;;;;5060465;28;45261;-78
2022/03/03 04:06:21;;;;;;;;;71.00;55.00;;;;;;;;5062890;28;45475;-79
2022/03/03 04:08:47;;;;;;;;;76.25;58.25;;;;;;;;5060201;28;45209;-79
2022/03/03 04:11:12;;;;;;;;;71.75;57.25;;;;;;;;5059515;27;45319;-79
2022/03/03 04:13:37;;;;;;;;;75.00;58.50;;;;;;;;5064456;28;45371;-78
2022/03/03 04:16:03;;;;;;;;;73.00;56.50;;;;;;;;5060416;28;45534;-79
2022/03/03 04:18:29;;;;;;;;;77.75;60.50;;;;;;;;5069916;28;45229;-79
2022/03/03 04:20:54;;;;;;;;;73.25;55.75;;;;;;;;5079947;28;45246;-79
2022/03/03 04:23:19;;;;;;;;;70.25;52.75;;;;;;;;5071067;28;44847;-79
2022/03/03 04:25:44;;;;;;;;;72.00;57.75;;;;;;;;5059549;28;48087;-79
2022/03/03 04:28:10;;;;;;;;;74.25;56.50;;;;;;;;5068744;28;46329;-79
2022/03/03 04:30:35;;;;;;;;;76.25;59.00;;;;;;;;5060258;28;46365;-79
2022/03/03 04:33:00;;;;;;;;;75.00;57.00;;;;;;;;5062587;28;45361;-79
2022/03/03 04:35:25;;;;;;;;;78.00;59.75;;;;;;;;5061005;28;45559;-79
2022/03/03 04:37:51;;;;;;;;;74.50;55.25;;;;;;;;5068224;28;45359;-79
2022/03/03 04:40:16;;;;;;;;;70.25;56.50;;;;;;;;5059034;28;46593;-79
2022/03/03 04:42:41;;;;;;;;;72.50;56.25;;;;;;;;5065121;28;45373;-79
2022/03/03 04:45:07;;;;;;;;;75.50;56.50;;;;;;;;5059619;28;46461;-79
2022/03/03 04:47:32;;;;;;;;;70.50;56.00;;;;;;;;5062068;28;45403;-79
2022/03/03 04:49:57;;;;;;;;;74.00;56.00;;;;;;;;5060616;28;45405;-79
2022/03/03 04:52:22;;;;;;;;;70.75;56.75;;;;;;;;5061836;28;45256;-79
2022/03/03 04:54:49;;;;;;;;;80.00;59.75;;;;;;;;5059631;28;45481;-79
2022/03/03 04:57:14;;;;;;;;;74.75;57.75;;;;;;;;5062328;28;45418;-80
2022/03/03 04:59:40;;;;;;;;;73.25;55.50;;;;;;;;5062000;28;45278;-79
2022/03/03 05:02:06;;;;;;;;;72.25;55.00;;;;;;;;5062048;28;45288;-79
2022/03/03 05:04:31;;;;;;;;;75.00;55.00;;;;;;;;5060000;28;45647;-79
2022/03/03 05:06:56;;;;;;;;;72.00;55.00;;;;;;;;5060230;28;45292;-79
2022/03/03 05:09:22;;;;;;;;;76.25;58.50;;;;;;;;5067052;28;45304;-79
2022/03/03 05:11:47;;;;;;;;;76.00;58.25;;;;;;;;5062830;28;46085;-79
2022/03/03 05:14:12;;;;;;;;;70.75;55.25;;;;;;;;5074303;28;47055;-79
2022/03/03 05:16:37;;;;;;;;;73.50;56.25;;;;;;;;5061784;28;45230;-78
2022/03/03 05:19:03;;;;;;;;;72.50;54.50;;;;;;;;5068456;28;45288;-78
2022/03/03 05:21:28;;;;;;;;;72.50;56.00;;;;;;;;5061489;28;45505;-79
2022/03/03 05:23:53;;;;;;;;;73.75;56.50;;;;;;;;5068815;28;45651;-79
2022/03/03 05:26:18;;;;;;;;;73.50;57.25;;;;;;;;5061804;28;45195;-78
2022/03/03 05:28:44;;;;;;;;;75.50;57.50;;;;;;;;5072193;28;45368;-79
2022/03/03 05:31:09;;;;;;;;;71.00;56.25;;;;;;;;5070746;28;45193;-79
2022/03/03 05:33:35;;;;;;;;;71.75;56.50;;;;;;;;5069232;28;45146;-77
2022/03/03 05:36:02;;;;;;;;;73.25;56.50;;;;;;;;5059342;28;45303;-76
2022/03/03 05:38:32;;;;;;;;;70.50;56.50;;;;;;;;5068080;28;45442;-77
2022/03/03 05:40:58;;;;;;;;;74.00;58.50;;;;;;;;5058378;28;45248;-77
2022/03/03 05:43:24;;;;;;;;;70.25;55.00;;;;;;;;5059867;28;46417;-76
2022/03/03 05:45:50;;;;;;;;;72.00;56.00;;;;;;;;5071888;28;45422;-76
2022/03/03 05:48:19;;;;;;;;;71.25;53.75;;;;;;;;5061722;28;45405;-76
2022/03/03 05:50:44;;;;;;;;;76.75;58.75;;;;;;;;5057852;28;46399;-76
2022/03/03 05:53:09;;;;;;;;;68.00;53.75;;;;;;;;5060958;28;45647;-76
2022/03/03 05:55:38;;;;;;;;;74.25;57.50;;;;;;;;5059117;28;45402;-77
2022/03/03 05:58:06;;;;;;;;;66.50;54.75;;;;;;;;5060669;28;45478;-77
2022/03/03 06:00:33;;;;;;;;;72.25;54.00;;;;;;;;5060667;28;45286;-77
2022/03/03 06:03:01;;;;;;;;;73.00;56.75;;;;;;;;5070058;28;47416;-77
2022/03/03 06:05:27;;;;;;;;;70.25;54.00;;;;;;;;5058777;28;45257;-78
2022/03/03 06:07:54;;;;;;;;;77.25;58.75;;;;;;;;5060986;28;45470;-80
2022/03/03 06:10:23;;;;;;;;;75.00;57.50;;;;;;;;5059481;28;45230;-79
2022/03/03 06:12:54;;;;;;;;;76.00;58.25;;;;;;;;5076960;27;47478;-80
2022/03/03 06:15:22;;;;;;;;;76.50;58.25;;;;;;;;5061287;28;45907;-78
2022/03/03 06:17:48;;;;;;;;;68.50;52.25;;;;;;;;5072468;28;45461;-82
2022/03/03 06:20:14;;;;;;;;;72.00;54.75;;;;;;;;5073626;28;45437;-80
2022/03/03 06:22:39;;;;;;;;;70.00;56.00;;;;;;;;5076803;28;45691;-79
2022/03/03 06:25:05;;;;;;;;;76.75;57.00;;;;;;;;5064484;28;45366;-77
2022/03/03 06:27:31;;;;;;;;;70.25;55.50;;;;;;;;5069857;28;45298;-78
2022/03/03 06:29:57;;;;;;;;;75.75;59.75;;;;;;;;5065773;28;45184;-84
2022/03/03 06:32:22;;;;;;;;;74.00;59.00;;;;;;;;5069107;28;47167;-78
2022/03/03 06:34:47;;;;;;;;;77.25;58.00;;;;;;;;5062112;28;45394;-79
2022/03/03 06:37:13;;;;;;;;;70.50;54.50;;;;;;;;5065253;28;45249;-79
2022/03/03 06:39:38;;;;;;;;;81.50;59.25;;;;;;;;5061992;28;45356;-80
2022/03/03 06:42:04;;;;;;;;;74.25;57.50;;;;;;;;5068674;28;48198;-80
2022/03/03 06:44:29;;;;;;;;;77.00;59.00;;;;;;;;5063059;28;46800;-81
2022/03/03 06:46:55;;;;;;;;;75.75;57.75;;;;;;;;5064027;28;46137;-79
2022/03/03 06:49:20;;;;;;;;;70.00;54.50;;;;;;;;5061821;28;47168;-80
2022/03/03 06:51:49;;;;;;;;;73.50;57.00;;;;;;;;5064080;28;47253;-80
2022/03/03 06:54:18;;;;;;;;;76.75;59.50;;;;;;;;5080527;28;45355;-82
2022/03/03 06:56:45;;;;;;;;;77.75;58.25;;;;;;;;5066563;28;45343;-81
2022/03/03 06:59:12;;;;;;;;;69.75;53.00;;;;;;;;5061940;28;45498;-78
2022/03/03 07:01:40;;;;;;;;;75.00;58.25;;;;;;;;5064616;28;47296;-80
2022/03/03 07:04:07;;;;;;;;;71.50;58.00;;;;;;;;5061623;28;45427;-81
2022/03/03 07:06:32;;;;;;;;;72.75;57.50;;;;;;;;5061496;28;45331;-79
2022/03/03 07:08:58;;;;;;;;;79.50;58.75;;;;;;;;5070477;28;45297;-86
2022/03/03 07:11:24;;;;;;;;;73.50;57.00;;;;;;;;5063241;27;46282;-86
2022/03/03 07:13:49;;;;;;;;;78.75;57.00;;;;;;;;5076991;27;45209;-88
2022/03/03 07:16:21;;;;;;;;;76.25;58.75;;;;;;;;5064921;28;45426;-89
2022/03/03 07:18:49;;;;;;;;;72.75;55.50;;;;;;;;5063857;28;46218;-88
2022/03/03 07:21:23;;;;;;;;;63.00;52.00;;;;;;;;5066549;28;46162;-84
2022/03/03 07:23:53;;;;;;;;;70.75;56.00;;;;;;;;5061665;28;45379;-84
2022/03/03 07:26:19;;;;;;;;;67.00;53.25;;;;;;;;5061670;28;45580;-83
2022/03/03 07:28:49;;;;;;;;;70.00;54.00;;;;;;;;5066850;28;46715;-85
2022/03/03 07:31:16;;;;;;;;;66.25;51.00;;;;;;;;5064120;28;47400;-85
2022/03/03 07:33:48;;;;;;;;;60.75;48.75;;;;;;;;5061745;28;45252;-84
2022/03/03 07:36:18;;;;;;;;;64.25;49.50;;;;;;;;5062529;28;45635;-84
2022/03/03 07:38:48;;;;;;;;;58.75;48.00;;;;;;;;5061045;28;45561;-85
2022/03/03 07:41:14;;;;;;;;;56.25;44.00;;;;;;;;5059313;28;46227;-88
2022/03/03 07:43:40;;;;;;;;;65.75;49.25;;;;;;;;5062514;28;45283;-84
2022/03/03 07:46:05;;;;;;;;;63.50;47.75;;;;;;;;5061601;28;45267;-88
2022/03/03 07:48:31;;;;;;;;;64.25;50.00;;;;;;;;5073679;28;45731;-85
2022/03/03 07:50:58;;;;;;;;;60.50;47.00;;;;;;;;5080152;28;46719;-91
2022/03/03 07:53:23;;;;;;;;;67.50;50.50;;;;;;;;5077249;28;45454;-89
2022/03/03 07:55:51;;;;;;;;;69.25;52.75;;;;;;;;5069735;28;45415;-86
2022/03/03 07:58:18;;;;;;;;;60.00;49.75;;;;;;;;5076820;28;45345;-86
2022/03/03 08:00:47;;;;;;;;;60.50;46.75;;;;;;;;5062769;28;45608;-86
2022/03/03 08:03:15;;;;;;;;;55.25;45.50;;;;;;;;5067811;28;45276;-83
2022/03/03 08:05:42;;;;;;;;;53.75;44.00;;;;;;;;5063729;28;45405;-84
2022/03/03 08:08:10;;;;;;;;;54.25;43.75;;;;;;;;5071556;28;45474;-83
2022/03/03 08:10:40;;;;;;;;;54.25;45.00;;;;;;;;5059205;28;46754;-83
2022/03/03 08:13:05;;;;;;;;;68.50;52.75;;;;;;;;5072240;27;45416;-83
2022/03/03 08:15:31;;;;;;;;;71.00;51.50;;;;;;;;5072328;28;45244;-85
2022/03/03 08:17:56;;;;;;;;;60.50;46.75;;;;;;;;5078034;28;47028;-82
2022/03/03 08:20:22;;;;;;;;;63.00;49.25;;;;;;;;5072600;28;45408;-85
2022/03/03 08:22:47;;;;;;;;;53.50;43.50;;;;;;;;5072639;28;45495;-83
2022/03/03 08:25:13;;;;;;;;;55.50;42.00;;;;;;;;5073241;28;45243;-84
2022/03/03 08:27:40;;;;;;;;;52.00;41.75;;;;;;;;5067409;28;45541;-84
2022/03/03 08:30:06;;;;;;;;;53.75;43.00;;;;;;;;5059959;28;46332;-86
2022/03/03 08:32:34;;;;;;;;;61.00;49.50;;;;;;;;5067780;28;45382;-86
2022/03/03 08:35:07;;;;;;;;;55.00;45.25;;;;;;;;5059637;28;45334;-85
2022/03/03 08:37:34;;;;;;;;;55.00;44.00;;;;;;;;5077146;28;45266;-85
2022/03/03 08:40:03;;;;;;;;;51.00;42.50;;;;;;;;5076766;28;47347;-84
2022/03/03 08:42:34;;;;;;;;;54.75;45.50;;;;;;;;5073581;28;45262;-84
2022/03/03 08:45:04;;;;;;;;;51.25;42.50;;;;;;;;5059931;28;45326;-86
2022/03/03 08:47:30;;;;;;;;;54.00;39.00;;;;;;;;5069434;28;45368;-89
2022/03/03 08:50:06;;;;;;;;;56.00;42.25;;;;;;;;5070211;28;45485;-87
2022/03/03 08:52:31;;;;;;;;;54.50;42.00;;;;;;;;5083570;28;44729;-79
2022/03/03 08:54:56;;;;;;;;;54.00;43.00;;;;;;;;5061589;28;45271;-83
2022/03/03 08:57:22;;;;;;;;;54.50;45.75;;;;;;;;5060722;28;45383;-83
2022/03/03 08:59:47;;;;;;;;;53.25;43.75;;;;;;;;5061290;28;45404;-83
2022/03/03 09:02:16;;;;;;;;;55.25;42.25;;;;;;;;5061858;28;45255;-82
2022/03/03 09:04:42;;;;;;;;;56.00;45.00;;;;;;;;5060949;28;45453;-82
2022/03/03 09:07:08;;;;;;;;;59.50;44.75;;;;;;;;5063760;28;45434;-83
2022/03/03 09:09:34;;;;;;;;;54.00;42.25;;;;;;;;5058663;28;45710;-85
2022/03/03 09:12:01;;;;;;;;;58.25;45.25;;;;;;;;5058702;27;45368;-85
2022/03/03 09:14:26;;;;;;;;;52.75;42.25;;;;;;;;5058890;28;45435;-85
2022/03/03 09:16:52;;;;;;;;;63.50;48.25;;;;;;;;5059277;28;45386;-83
2022/03/03 09:19:17;;;;;;;;;67.00;50.25;;;;;;;;5058045;28;46251;-80
2022/03/03 09:21:42;;;;;;;;;55.50;46.25;;;;;;;;5062331;28;45526;-81
2022/03/03 09:24:09;;;;;;;;;61.50;48.50;;;;;;;;5059744;28;45215;-83
2022/03/03 09:26:34;;;;;;;;;59.50;46.25;;;;;;;;5058636;28;45407;-82
2022/03/03 09:29:00;;;;;;;;;56.25;44.25;;;;;;;;5068800;28;47399;-88
2022/03/03 09:31:25;;;;;;;;;61.75;48.00;;;;;;;;5057813;28;45573;-84
2022/03/03 09:33:50;;;;;;;;;56.75;47.50;;;;;;;;5068076;28;45326;-83
2022/03/03 09:36:18;;;;;;;;;66.25;49.75;;;;;;;;5061218;28;46013;-79
2022/03/03 09:38:43;;;;;;;;;64.25;49.75;;;;;;;;5063050;28;45427;-81
2022/03/03 09:41:08;;;;;;;;;53.50;42.25;;;;;;;;5059708;28;44784;-88
2022/03/03 09:43:33;;;;;;;;;53.50;44.00;;;;;;;;5065601;28;45357;-86
2022/03/03 09:45:59;;;;;;;;;60.50;48.50;;;;;;;;5064580;28;45358;-81
2022/03/03 09:48:24;;;;;;;;;52.75;42.00;;;;;;;;5062737;28;48211;-81
2022/03/03 09:50:49;;;;;;;;;52.75;41.25;;;;;;;;5062601;28;45402;-83
2022/03/03 09:53:16;;;;;;;;;56.25;43.50;;;;;;;;5062882;28;45418;-83
2022/03/03 09:55:43;;;;;;;;;56.75;43.00;;;;;;;;5062009;27;45925;-77
2022/03/03 09:58:08;;;;;;;;;57.50;43.50;;;;;;;;5061856;28;46517;-76
2022/03/03 10:00:37;;;;;;;;;55.50;43.25;;;;;;;;5062785;28;45315;-77
2022/03/03 10:03:08;;;;;;;;;47.75;40.75;;;;;;;;5061887;28;45398;-78
2022/03/03 10:05:38;;;;;;;;;58.50;42.75;;;;;;;;5061319;28;46057;-77
2022/03/03 10:08:05;;;;;;;;;52.75;42.50;;;;;;;;5066491;28;46503;-78
2022/03/03 10:10:31;;;;;;;;;53.50;43.00;;;;;;;;5061049;28;45601;-77
2022/03/03 10:12:57;;;;;;;;;56.50;44.75;;;;;;;;5073100;27;45169;-78
2022/03/03 10:15:26;;;;;;;;;60.50;45.50;;;;;;;;5062966;28;45359;-78
2022/03/03 10:17:56;;;;;;;;;59.75;45.25;;;;;;;;5070644;28;47283;-77
2022/03/03 10:20:21;;;;;;;;;55.50;43.75;;;;;;;;5062833;28;45334;-77
2022/03/03 10:22:51;;;;;;;;;53.00;42.50;;;;;;;;5072164;28;45288;-77
2022/03/03 10:25:26;;;;;;;;;54.75;42.00;;;;;;;;5063230;28;45499;-78
2022/03/03 10:27:52;;;;;;;;;52.25;42.00;;;;;;;;5070217;28;47407;-76
2022/03/03 10:30:17;;;;;;;;;51.75;41.00;;;;;;;;5061987;28;45315;-77
2022/03/03 10:32:42;;;;;;;;;53.25;43.00;;;;;;;;5068882;28;44697;-77
2022/03/03 10:35:19;;;;;;;;;50.00;41.75;;;;;;;;5062001;28;45147;-77
2022/03/03 10:37:46;;;;;;;;;50.50;40.50;;;;;;;;5067145;28;46589;-78
2022/03/03 10:40:13;;;;;;;;;54.25;40.00;;;;;;;;5063952;28;45750;-77
2022/03/03 10:42:41;;;;;;;;;52.75;42.50;;;;;;;;5067531;27;45370;-78
2022/03/03 10:45:08;;;;;;;;;55.50;44.75;;;;;;;;5062690;28;47502;-78
2022/03/03 10:47:33;;;;;;;;;52.75;43.50;;;;;;;;5070151;28;47131;-78
2022/03/03 10:49:59;;;;;;;;;52.75;42.00;;;;;;;;5065362;28;45420;-78
2022/03/03 10:52:29;;;;;;;;;53.00;42.75;;;;;;;;5066906;28;45237;-78
2022/03/03 10:55:07;;;;;;;;;51.75;41.25;;;;;;;;5060288;28;45927;-79
2022/03/03 10:57:36;;;;;;;;;53.25;41.75;;;;;;;;5063173;28;46682;-77
2022/03/03 11:00:04;;;;;;;;;55.50;43.25;;;;;;;;5065380;28;45788;-75
2022/03/03 11:02:29;;;;;;;;;49.75;40.00;;;;;;;;5068976;28;45456;-75
2022/03/03 11:04:55;;;;;;;;;48.50;39.25;;;;;;;;5071864;28;45344;-76
2022/03/03 11:07:21;;;;;;;;;52.75;44.00;;;;;;;;5076652;28;45584;-76
2022/03/03 11:09:47;;;;;;;;;51.00;40.50;;;;;;;;5066280;28;45327;-75
2022/03/03 11:12:13;;;;;;;;;53.25;42.25;;;;;;;;5065773;27;45229;-76
2022/03/03 11:14:39;;;;;;;;;52.50;40.75;;;;;;;;5067613;28;45266;-76
2022/03/03 11:17:05;;;;;;;;;56.25;43.00;;;;;;;;5065443;28;45483;-76
2022/03/03 11:19:30;;;;;;;;;50.75;41.00;;;;;;;;5068536;28;45246;-76
2022/03/03 11:21:56;;;;;;;;;53.00;42.00;;;;;;;;5063240;28;45434;-75
2022/03/03 11:24:21;;;;;;;;;48.25;41.00;;;;;;;;5069573;28;46067;-76
2022/03/03 11:26:48;;;;;;;;;48.00;37.75;;;;;;;;5075745;28;46801;-75
2022/03/03 11:29:15;;;;;;;;;49.75;40.75;;;;;;;;5064786;28;45503;-78
2022/03/03 11:31:41;;;;;;;;;49.50;40.00;;;;;;;;5073467;27;45435;-75
2022/03/03 11:34:18;;;;;;;;;52.50;42.00;;;;;;;;5062855;28;45489;-75
2022/03/03 11:36:45;;;;;;;;;53.00;39.25;;;;;;;;5066037;28;46222;-75
2022/03/03 11:39:10;;;;;;;;;52.00;38.25;;;;;;;;5069257;28;45858;-76
2022/03/03 11:41:49;;;;;;;;;52.50;40.00;;;;;;;;5063354;28;45215;-76
2022/03/03 11:44:15;;;;;;;;;47.75;39.25;;;;;;;;5070919;28;45481;-77
2022/03/03 11:46:50;;;;;;;;;48.75;39.00;;;;;;;;5070385;28;48102;-75
2022/03/03 11:49:18;;;;;;;;;47.00;38.50;;;;;;;;5060670;28;45426;-75
2022/03/03 11:51:47;;;;;;;;;48.75;40.00;;;;;;;;5062797;28;45260;-77
2022/03/03 11:54:12;;;;;;;;;48.50;40.75;;;;;;;;5078201;28;46486;-76
2022/03/03 11:56:57;;;;;;;;;48.50;37.00;;;;;;;;5076946;28;45216;-77
2022/03/03 11:59:32;;;;;;;;;47.75;38.75;;;;;;;;5062378;28;45290;-78
2022/03/03 12:01:57;;;;;;;;;48.00;40.50;;;;;;;;5062514;28;45283;-76
2022/03/03 12:04:25;;;;;;;;;38.75;34.25;;;;;;;;5059128;28;45867;-77
2022/03/03 12:06:51;;;;;;;;;46.25;39.25;;;;;;;;5060026;28;46932;-76
2022/03/03 12:09:17;;;;;;;;;44.75;35.00;;;;;;;;5067182;28;45832;-78
2022/03/03 15:58:48;;;;;;;;;24.25;21.25;;;;;12.45;61.63;101173.91;5107037;27;45304;-78
2022/03/03 16:01:13;;;;;;;;;27.00;21.00;;;;;12.30;60.86;101120.56;5112377;27;45449;-78
2022/03/03 16:03:39;;;;;;;;;22.50;19.25;;;;;12.63;60.57;101156.59;5089826;27;45382;-78
2022/03/03 16:06:04;;;;;;;;;23.25;20.25;;;;;12.95;60.56;101202.41;5096212;27;45271;-78
2022/03/03 16:08:33;;;;;;;;;21.75;14.25;;;;;12.94;60.23;101190.00;5089769;27;46530;-78
2022/03/03 16:10:59;;;;;;;;;24.50;20.00;;;;;12.76;60.81;101158.66;5096329;27;45393;-77
2022/03/03 16:13:25;;;;;;;;;25.00;25.00;;;;;13.06;60.35;101195.56;5090428;27;45497;-77
2022/03/03 16:15:50;;;;;;;;;28.00;24.50;;;;;12.96;60.61;101189.16;5092126;27;45350;-77
2022/03/03 16:18:24;;;;;;;;;18.00;18.00;;;;;13.13;60.18;101200.09;5091336;27;45372;-78
2022/03/03 16:20:50;;;;;;;;;24.00;22.00;;;;;13.05;59.86;101176.94;5094413;27;45356;-78
2022/03/03 16:23:16;;;;;;;;;20.50;19.00;;;;;13.20;59.74;101194.06;5092982;27;45472;-78
2022/03/03 16:25:41;;;;;;;;;20.00;19.75;;;;;13.23;59.77;101193.25;5094498;27;45443;-78
2022/03/03 16:28:06;;;;;;;;;22.50;20.00;;;;;13.11;59.58;101177.97;5094226;27;45532;-77
2022/03/03 16:30:32;;;;;;;;;22.00;20.00;;;;;13.01;59.58;101159.19;5095362;27;45330;-78
2022/03/03 16:32:58;;;;;;;;;19.00;18.00;;;;;13.05;59.99;101166.31;5091601;27;45344;-77
2022/03/03 16:35:23;;;;;;;;;25.50;20.75;;;;;13.18;59.70;101190.50;5090030;27;45391;-78
2022/03/03 16:37:48;;;;;;;;;20.50;16.00;;;;;13.12;59.68;101181.53;5093175;27;46013;-77
2022/03/03 16:40:14;;;;;;;;;21.50;18.75;;;;;13.21;59.73;101193.19;5088474;27;45600;-78
2022/03/03 16:42:39;;;;;;;;;21.50;17.00;;;;;13.21;59.50;101192.31;5090958;27;45243;-77
2022/03/03 16:45:05;;;;;;;;;20.00;17.25;;;;;13.12;59.39;101179.75;5095514;27;45551;-77
2022/03/03 16:47:31;;;;;;;;;19.00;18.00;;;;;13.18;59.71;101192.25;5093024;27;47163;-78
2022/03/03 16:49:56;;;;;;;;;19.00;18.00;;;;;12.78;59.22;101119.81;5085103;27;45495;-77
2022/03/03 16:52:21;;;;;;;;;20.25;17.75;;;;;13.13;59.40;101184.19;5108014;27;45438;-78
2022/03/03 16:54:49;;;;;;;;;17.75;15.50;;;;;13.13;59.85;101175.34;5091465;27;45709;-77
2022/03/03 16:57:21;;;;;;;;;20.25;18.50;;;;;13.19;59.51;101189.66;5093023;27;45635;-77
2022/03/03 16:59:48;;;;;;;;;18.25;18.25;;;;;13.19;59.59;101192.28;5077535;28;45378;-77
2022/03/03 17:02:13;;;;;;;;;20.75;20.00;;;;;13.19;59.42;101200.25;5079607;27;47571;-78
2022/03/03 17:04:40;;;;;;;;;25.75;22.00;;;;;13.14;59.30;101187.75;5078254;28;45320;-77
2022/03/03 17:07:05;;;;;;;;;20.50;18.50;;;;;12.93;59.48;101146.63;5080683;27;45587;-77
2022/03/03 17:09:30;;;;;;;;;28.00;21.75;;;;;13.14;59.59;101187.75;5076698;27;45355;-78
2022/03/03 17:11:56;;;;;;;;;22.50;21.50;;;;;13.11;59.48;101185.06;5078933;28;45935;-78
2022/03/03 17:14:22;;;;;;;;;25.25;21.00;;;;;13.12;59.38;101189.47;5077011;28;45413;-79
2022/03/03 17:16:47;;;;;;;;;21.25;19.25;;;;;13.17;59.02;101199.31;5079341;28;48261;-79
2022/03/03 17:19:13;;;;;;;;;23.75;19.00;;;;;13.00;59.21;101163.59;5078163;28;45385;-79
2022/03/03 17:21:39;;;;;;;;;28.25;21.00;;;;;12.97;59.40;101166.19;5081933;28;45738;-79
2022/03/03 17:24:12;;;;;;;;;20.75;17.00;;;;;13.13;59.62;101199.22;5075314;28;45516;-79
2022/03/03 17:26:38;;;;;;;;;20.50;18.00;;;;;12.62;59.56;101115.94;5081380;27;46321;-79
2022/03/03 17:29:05;;;;;;;;;22.00;20.50;;;;;13.09;59.18;101202.69;5071572;28;45443;-79
2022/03/03 17:31:30;;;;;;;;;22.25;19.50;;;;;12.87;59.60;101170.41;5081888;27;45307;-79